Time;durP1;ratioP1;P1;durP2;ratioP2;P2;SDS_P1;SDS_P2;PMS_P1;PMS_P2;Temp;Humidity;BMP_temperature;BMP_pressure;BME280_temperature;BME280_humidity;BME280_pressure;Samples;Min_cycle;Max_cycle;Signal;HPM_P1;HPM_P2
2021/04/25 00:00:53;;;;;;;3.70;2.53;;;18.00;58.40;;;;;;4123483;28;20054;-60
2021/04/25 00:02:55;;;;;;;4.93;2.38;;;18.00;58.30;;;;;;4121561;28;20149;-54
2021/04/25 00:04:57;;;;;;;3.78;2.30;;;18.00;58.30;;;;;;4122099;28;20064;-54
2021/04/25 00:06:59;;;;;;;3.72;2.28;;;18.00;58.30;;;;;;4109258;28;20637;-47
2021/04/25 00:09:01;;;;;;;4.93;2.75;;;18.00;58.30;;;;;;4110345;28;20526;-50
2021/04/25 00:11:04;;;;;;;4.35;2.20;;;18.00;58.60;;;;;;4115062;28;20971;-53
2021/04/25 00:13:06;;;;;;;9.00;2.40;;;18.00;58.70;;;;;;4115179;28;20030;-50
2021/04/25 00:15:15;;;;;;;5.97;2.35;;;18.00;58.80;;;;;;4117396;28;20112;-48
2021/04/25 00:17:17;;;;;;;4.93;2.53;;;18.00;58.70;;;;;;4128375;28;21733;-51
2021/04/25 00:19:19;;;;;;;6.13;2.20;;;18.00;58.60;;;;;;4124140;28;20114;-47
2021/04/25 00:21:22;;;;;;;14.45;3.15;;;18.00;58.30;;;;;;4125270;28;20026;-54
2021/04/25 00:23:24;;;;;;;8.63;2.95;;;18.10;58.40;;;;;;4122507;28;20038;-61
2021/04/25 00:25:26;;;;;;;4.50;2.20;;;18.10;58.20;;;;;;4111399;28;20428;-60
2021/04/25 00:27:28;;;;;;;5.22;2.92;;;18.10;59.00;;;;;;4111160;28;20495;-63
2021/04/25 00:29:31;;;;;;;6.43;2.45;;;18.10;59.40;;;;;;4110416;28;20078;-59
2021/04/25 00:31:33;;;;;;;6.20;2.70;;;18.20;60.10;;;;;;4126583;28;20038;-59
2021/04/25 00:33:36;;;;;;;3.65;1.90;;;18.20;60.20;;;;;;4127865;28;20049;-61
2021/04/25 00:35:38;;;;;;;4.80;1.90;;;18.30;60.30;;;;;;4117719;28;20132;-57
2021/04/25 00:37:41;;;;;;;3.78;1.95;;;18.30;60.20;;;;;;4109556;28;20379;-57
2021/04/25 00:39:45;;;;;;;3.35;2.05;;;18.40;60.10;;;;;;4104209;28;20560;-47
2021/04/25 00:41:47;;;;;;;6.15;2.45;;;18.40;59.70;;;;;;4108296;28;20039;-47
2021/04/25 00:43:49;;;;;;;4.28;2.20;;;18.40;59.10;;;;;;4110273;28;20038;-49
2021/04/25 00:45:51;;;;;;;4.30;2.25;;;18.40;58.80;;;;;;4104960;28;20134;-48
2021/04/25 00:47:54;;;;;;;3.95;2.28;;;18.40;58.60;;;;;;4110427;28;20039;-51
2021/04/25 00:49:56;;;;;;;3.97;2.20;;;18.40;58.40;;;;;;4129762;28;20034;-46
2021/04/25 00:51:58;;;;;;;3.38;2.38;;;18.40;58.40;;;;;;4122009;28;20142;-57
2021/04/25 00:54:02;;;;;;;5.75;2.75;;;18.40;58.30;;;;;;4116092;28;20049;-53
2021/04/25 00:56:05;;;;;;;6.07;2.28;;;18.40;58.30;;;;;;4118294;28;20021;-57
2021/04/25 00:58:08;;;;;;;3.92;2.28;;;18.40;58.20;;;;;;4113207;28;20134;-51
2021/04/25 01:00:13;;;;;;;4.07;2.25;;;18.40;58.30;;;;;;4112324;28;20073;-58
2021/04/25 01:02:15;;;;;;;4.00;2.30;;;18.40;58.30;;;;;;4111441;28;20178;-52
2021/04/25 01:04:17;;;;;;;3.80;2.40;;;18.40;58.90;;;;;;4129304;28;20412;-55
2021/04/25 01:06:19;;;;;;;3.33;2.20;;;18.40;58.20;;;;;;4127893;28;20048;-56
2021/04/25 01:08:21;;;;;;;3.15;2.28;;;18.50;58.30;;;;;;4125809;28;20022;-57
2021/04/25 01:10:24;;;;;;;5.22;2.50;;;18.50;58.30;;;;;;4128665;28;20088;-55
2021/04/25 01:12:26;;;;;;;4.35;2.40;;;18.50;58.30;;;;;;4119865;28;20041;-58
2021/04/25 01:14:28;;;;;;;4.55;2.42;;;18.50;58.40;;;;;;4112510;28;20044;-55
2021/04/25 01:16:30;;;;;;;4.97;2.42;;;18.50;58.40;;;;;;4107303;28;20037;-51
2021/04/25 01:18:32;;;;;;;4.60;2.55;;;18.50;58.40;;;;;;4115248;28;20038;-49
2021/04/25 01:20:34;;;;;;;5.05;2.42;;;18.50;58.40;;;;;;4110222;28;20597;-51
2021/04/25 01:22:37;;;;;;;6.05;2.42;;;18.50;58.40;;;;;;4114751;28;20034;-58
2021/04/25 01:24:39;;;;;;;4.63;2.40;;;18.60;58.60;;;;;;4103167;28;20096;-52
2021/04/25 01:26:41;;;;;;;6.68;2.63;;;18.60;58.70;;;;;;4113565;28;20057;-51
2021/04/25 01:28:43;;;;;;;4.65;2.60;;;18.60;58.80;;;;;;4124678;28;20022;-54
2021/04/25 01:30:46;;;;;;;3.33;2.20;;;18.60;58.90;;;;;;4123466;28;20385;-55
2021/04/25 01:32:48;;;;;;;4.25;2.60;;;18.70;59.00;;;;;;4121381;28;20097;-53
2021/04/25 01:34:50;;;;;;;4.85;3.00;;;18.70;59.70;;;;;;4123026;28;20034;-53
2021/04/25 01:36:56;;;;;;;4.45;2.60;;;18.70;59.10;;;;;;4125421;28;20120;-52
2021/04/25 01:38:58;;;;;;;4.97;2.72;;;18.70;59.10;;;;;;4124153;28;20488;-53
2021/04/25 01:41:00;;;;;;;4.45;3.13;;;18.80;59.20;;;;;;4123783;28;20425;-56
2021/04/25 01:43:03;;;;;;;5.57;3.22;;;18.80;59.40;;;;;;4123121;28;20093;-52
2021/04/25 01:45:06;;;;;;;5.22;3.22;;;18.80;59.50;;;;;;4120627;28;20034;-56
2021/04/25 01:47:08;;;;;;;;;;;18.90;59.70;;;;;;4130864;28;20513;-54
2021/04/25 01:49:11;;;;;;;7.00;3.03;;;18.90;59.80;;;;;;4127243;28;19991;-54
2021/04/25 01:51:13;;;;;;;4.75;2.80;;;18.90;60.00;;;;;;4126549;28;20034;-52
2021/04/25 01:53:15;;;;;;;6.10;3.17;;;18.90;60.00;;;;;;4127502;28;20049;-54
2021/04/25 01:55:18;;;;;;;6.60;2.92;;;19.00;60.20;;;;;;4133497;28;20049;-50
2021/04/25 01:57:20;;;;;;;6.35;3.05;;;19.00;60.30;;;;;;4128195;28;20038;-58
2021/04/25 01:59:23;;;;;;;6.47;2.78;;;19.00;60.30;;;;;;4124446;28;20096;-60
2021/04/25 02:01:26;;;;;;;7.18;2.80;;;19.10;60.20;;;;;;4133899;28;20076;-57
2021/04/25 02:03:28;;;;;;;4.20;2.63;;;19.10;60.40;;;;;;4132891;28;20050;-54
2021/04/25 02:05:31;;;;;;;4.88;2.35;;;19.10;60.60;;;;;;4126626;28;20511;-46
2021/04/25 02:07:33;;;;;;;6.85;2.75;;;19.10;60.90;;;;;;4136993;28;20030;-59
2021/04/25 02:09:35;;;;;;;4.75;2.45;;;19.10;60.80;;;;;;4111723;28;20125;-61
2021/04/25 02:13:48;;;;;;;4.05;2.30;;;19.10;60.80;;;;;;4109480;28;20067;-73
2021/04/25 02:15:50;;;;;;;4.38;2.15;;;19.20;61.30;;;;;;4106224;28;20102;-77
2021/04/25 02:17:52;;;;;;;4.10;1.90;;;19.20;60.60;;;;;;4117949;28;20092;-74
2021/04/25 02:19:54;;;;;;;5.95;2.13;;;19.20;60.50;;;;;;4117677;28;20022;-71
2021/04/25 02:21:56;;;;;;;4.75;2.30;;;19.20;60.70;;;;;;4116696;28;20469;-77
2021/04/25 02:23:58;;;;;;;5.70;2.10;;;19.20;60.50;;;;;;4114885;28;20617;-74
2021/04/25 02:26:01;;;;;;;4.93;2.20;;;19.30;60.50;;;;;;4122712;28;20026;-73
2021/04/25 02:28:03;;;;;;;3.75;2.00;;;19.30;60.30;;;;;;4119734;28;20578;-76
2021/04/25 02:30:08;;;;;;;3.75;1.75;;;19.30;60.30;;;;;;4116933;28;20380;-75
2021/04/25 02:32:10;;;;;;;5.80;1.77;;;19.30;60.10;;;;;;4102546;28;20709;-74
2021/04/25 02:34:13;;;;;;;2.85;1.65;;;19.30;60.10;;;;;;4088628;28;20720;-78
2021/04/25 02:36:15;;;;;;;2.97;1.58;;;19.30;59.90;;;;;;4091664;28;20046;-73
2021/04/25 02:38:20;;;;;;;3.08;1.60;;;19.40;60.00;;;;;;4085097;29;20118;-75
2021/04/25 02:40:25;;;;;;;2.33;1.48;;;19.40;59.80;;;;;;4105594;28;20076;-75
2021/04/25 02:42:27;;;;;;;3.05;1.55;;;19.40;59.80;;;;;;4103317;28;20051;-75
2021/04/25 02:44:32;;;;;;;3.13;1.77;;;19.40;59.60;;;;;;4102544;28;20152;-73
2021/04/25 02:46:37;;;;;;;4.20;1.88;;;19.40;59.60;;;;;;4086785;28;20243;-75
2021/04/25 02:48:40;;;;;;;3.03;1.70;;;19.40;59.50;;;;;;4103634;28;20235;-74
2021/04/25 02:50:44;;;;;;;3.35;1.90;;;19.50;59.40;;;;;;4104187;28;20040;-75
2021/04/25 02:52:46;;;;;;;3.45;1.60;;;19.50;59.40;;;;;;4106417;28;20508;-72
2021/04/25 02:54:48;;;;;;;4.07;1.80;;;19.50;59.50;;;;;;4054959;28;20047;-76
2021/04/25 02:56:50;;;;;;;2.22;1.77;;;19.50;59.40;;;;;;4104546;28;20043;-74
2021/04/25 02:58:52;;;;;;;2.17;1.65;;;19.50;59.40;;;;;;4104209;28;20606;-74
2021/04/25 03:00:55;;;;;;;3.45;1.70;;;19.50;59.30;;;;;;4092577;28;20038;-73
2021/04/25 03:02:58;;;;;;;2.45;1.70;;;19.50;59.30;;;;;;4102383;28;20142;-74
2021/04/25 03:05:00;;;;;;;2.78;1.60;;;19.50;59.30;;;;;;4094343;28;20039;-72
2021/04/25 03:07:02;;;;;;;3.92;1.92;;;19.50;59.90;;;;;;4102688;28;20069;-74
2021/04/25 03:09:05;;;;;;;2.95;1.70;;;19.50;59.20;;;;;;4101845;28;20074;-74
2021/04/25 03:11:08;;;;;;;5.45;2.35;;;19.60;59.20;;;;;;4088508;28;20618;-73
2021/04/25 03:13:10;;;;;;;2.80;1.83;;;19.60;59.20;;;;;;4086849;28;20133;-75
2021/04/25 03:15:13;;;;;;;2.53;1.73;;;19.60;59.10;;;;;;4081921;28;20059;-76
2021/04/25 03:17:15;;;;;;;2.53;1.65;;;19.70;59.00;;;;;;4085588;28;20031;-75
2021/04/25 03:19:18;;;;;;;3.47;2.05;;;19.70;59.00;;;;;;4104226;28;20042;-75
2021/04/25 03:21:20;;;;;;;4.22;1.95;;;19.70;59.00;;;;;;4105037;28;20082;-75
2021/04/25 03:23:25;;;;;;;3.08;1.75;;;19.80;59.60;;;;;;4078104;28;20055;-75
2021/04/25 03:25:27;;;;;;;3.28;1.88;;;19.80;58.80;;;;;;4106886;28;20033;-74
2021/04/25 03:27:29;;;;;;;3.38;1.98;;;19.90;58.80;;;;;;4093705;28;20082;-75
2021/04/25 03:29:32;;;;;;;3.80;2.13;;;19.90;58.80;;;;;;4090586;28;20095;-72
2021/04/25 03:31:34;;;;;;;2.65;1.95;;;19.90;58.70;;;;;;4104443;28;20034;-73
2021/04/25 03:33:36;;;;;;;2.25;1.90;;;20.00;58.80;;;;;;4095242;28;20087;-75
2021/04/25 03:35:38;;;;;;;3.90;1.90;;;20.00;58.60;;;;;;4099480;28;20501;-74
2021/04/25 03:37:41;;;;;;;2.97;1.92;;;20.00;58.60;;;;;;4104918;28;20027;-75
2021/04/25 03:39:43;;;;;;;3.13;2.10;;;20.10;58.60;;;;;;4103700;28;20042;-72
2021/04/25 03:41:45;;;;;;;3.78;2.08;;;20.10;59.20;;;;;;4104490;28;20789;-74
2021/04/25 03:43:47;;;;;;;12.82;2.45;;;20.10;58.50;;;;;;4105897;28;20034;-77
2021/04/25 03:45:52;;;;;;;6.85;2.63;;;20.20;58.70;;;;;;4092351;28;20034;-76
2021/04/25 03:47:55;;;;;;;5.28;2.60;;;20.10;58.70;;;;;;4082851;28;20035;-78
2021/04/25 03:49:57;;;;;;;5.65;2.50;;;20.20;59.10;;;;;;4105306;28;20516;-75
2021/04/25 03:51:59;;;;;;;4.85;2.33;;;20.10;59.20;;;;;;4104378;28;20139;-75
2021/04/25 03:54:05;;;;;;;4.72;2.17;;;20.20;59.30;;;;;;4104323;28;20594;-77
2021/04/25 03:56:07;;;;;;;5.07;2.50;;;20.20;59.60;;;;;;4107941;28;20030;-76
2021/04/25 04:01:38;;;;;;;5.25;2.28;;;20.40;59.40;;;;;;3980552;29;20053;-75
2021/04/25 04:03:40;;;;;;;5.60;2.45;;;20.50;59.40;;;;;;4072001;28;20532;-77
2021/04/25 04:05:43;;;;;;;4.07;2.20;;;20.50;59.20;;;;;;4063511;28;20031;-77
2021/04/25 04:07:45;;;;;;;4.45;1.88;;;20.60;59.20;;;;;;4081659;28;20598;-75
2021/04/25 04:09:50;;;;;;;4.35;2.00;;;20.70;59.00;;;;;;4050037;28;20132;-75
2021/04/25 04:11:52;;;;;;;4.05;2.13;;;20.70;58.80;;;;;;4068460;28;20031;-79
2021/04/25 04:14:00;;;;;;;4.72;2.38;;;20.80;58.90;;;;;;4073684;29;20031;-80
2021/04/25 04:16:16;;;;;;;2.58;1.90;;;20.80;59.00;;;;;;4072986;28;20048;-78
2021/04/25 04:18:18;;;;;;;3.28;2.30;;;20.90;58.90;;;;;;4044629;28;20608;-75
2021/04/25 04:20:20;;;;;;;6.03;2.45;;;20.90;58.80;;;;;;4079828;28;20036;-80
2021/04/25 04:22:25;;;;;;;3.80;2.40;;;20.90;58.60;;;;;;4085124;28;20066;-78
2021/04/25 04:24:27;;;;;;;4.07;2.10;;;20.90;58.70;;;;;;4087789;28;20043;-76
2021/04/25 04:26:33;;;;;;;4.00;2.45;;;20.90;58.70;;;;;;4077086;28;20027;-79
2021/04/25 04:28:47;;;;;;;3.10;2.10;;;20.90;58.80;;;;;;4089762;28;20169;-80
2021/04/25 04:30:52;;;;;;;3.63;2.08;;;20.90;58.80;;;;;;4067724;28;20043;-78
2021/04/25 04:33:06;;;;;;;4.15;2.22;;;21.00;58.80;;;;;;4080299;28;20044;-79
2021/04/25 04:35:09;;;;;;;4.45;2.28;;;21.00;58.70;;;;;;4057142;29;20074;-81
2021/04/25 04:37:11;;;;;;;3.08;1.95;;;21.10;58.60;;;;;;4018211;29;20036;-74
2021/04/25 04:39:14;;;;;;;4.18;2.20;;;21.20;58.50;;;;;;4069725;28;20039;-76
2021/04/25 04:41:16;;;;;;;4.95;1.80;;;21.20;58.40;;;;;;4071847;29;20149;-78
2021/04/25 04:43:30;;;;;;;2.50;1.90;;;21.30;58.30;;;;;;4085601;28;20074;-75
2021/04/25 04:45:35;;;;;;;3.03;1.90;;;21.30;58.20;;;;;;4084689;28;20081;-81
2021/04/25 04:47:37;;;;;;;3.40;1.92;;;21.40;58.10;;;;;;4081945;28;20597;-75
2021/04/25 04:49:40;;;;;;;3.28;1.83;;;21.50;58.00;;;;;;4084404;28;20671;-76
2021/04/25 04:51:45;;;;;;;4.53;1.92;;;21.50;57.80;;;;;;4076524;28;20113;-77
2021/04/25 04:53:50;;;;;;;3.55;1.80;;;21.60;57.70;;;;;;4084186;28;20039;-76
2021/04/25 04:55:52;;;;;;;3.03;2.00;;;21.70;57.50;;;;;;4089824;28;20046;-76
2021/04/25 04:57:57;;;;;;;3.00;1.60;;;21.70;57.40;;;;;;4090317;28;20039;-74
2021/04/25 05:00:02;;;;;;;3.38;1.92;;;21.80;57.20;;;;;;4087634;28;20113;-78
2021/04/25 05:02:08;;;;;;;5.13;2.00;;;21.80;57.00;;;;;;4089668;28;20059;-77
2021/04/25 05:04:10;;;;;;;4.38;2.25;;;21.80;57.10;;;;;;4071372;28;20035;-77
2021/04/25 05:06:15;;;;;;;3.85;2.00;;;21.70;57.00;;;;;;4083226;28;20051;-80
2021/04/25 05:08:25;;;;;;;3.67;1.73;;;21.70;57.00;;;;;;4078456;28;20026;-78
2021/04/25 05:10:36;;;;;;;4.40;1.90;;;21.70;57.20;;;;;;4069490;29;20039;-83
2021/04/25 05:12:39;;;;;;;4.07;2.00;;;21.70;57.30;;;;;;4084051;28;20085;-77
2021/04/25 05:14:52;;;;;;;3.38;1.77;;;21.60;57.40;;;;;;4081039;28;20140;-79
2021/04/25 05:16:57;;;;;;;2.92;1.90;;;21.70;57.50;;;;;;4084847;28;20034;-76
2021/04/25 05:19:02;;;;;;;4.18;2.03;;;21.70;57.30;;;;;;4087833;28;20058;-75
2021/04/25 05:21:05;;;;;;;4.43;1.75;;;21.70;57.20;;;;;;4076089;28;20809;-79
2021/04/25 05:23:07;;;;;;;4.53;1.77;;;21.70;57.40;;;;;;4072308;29;20048;-77
2021/04/25 05:25:13;;;;;;;3.85;1.90;;;21.70;57.60;;;;;;4081824;28;20105;-79
2021/04/25 05:27:19;;;;;;;3.25;1.85;;;21.60;57.50;;;;;;4076793;28;20040;-84
2021/04/25 05:29:21;;;;;;;2.33;1.60;;;21.60;57.90;;;;;;4069503;28;20020;-76
2021/04/25 05:31:23;;;;;;;3.95;1.80;;;21.60;58.00;;;;;;4081730;28;20095;-78
2021/04/25 05:33:25;;;;;;;3.08;1.70;;;21.70;57.90;;;;;;4075157;28;20047;-77
2021/04/25 05:35:27;;;;;;;4.90;2.13;;;21.80;57.80;;;;;;4080576;28;20690;-83
2021/04/25 05:37:34;;;;;;;2.65;1.67;;;21.80;57.60;;;;;;4081202;28;20035;-83
2021/04/25 05:39:36;;;;;;;2.92;1.70;;;21.80;57.50;;;;;;4081016;28;20036;-79
2021/04/25 05:41:44;;;;;;;3.95;1.70;;;21.90;57.60;;;;;;4058818;28;20136;-78
2021/04/25 05:43:46;;;;;;;4.50;1.75;;;21.80;57.40;;;;;;4070873;28;20042;-78
2021/04/25 05:45:52;;;;;;;3.60;1.75;;;21.90;57.50;;;;;;4052602;28;20094;-85
2021/04/25 05:47:57;;;;;;;3.50;1.70;;;21.80;57.50;;;;;;4077766;28;20134;-77
2021/04/25 05:49:59;;;;;;;2.83;1.63;;;21.90;57.50;;;;;;4083046;28;20027;-76
2021/04/25 05:52:01;;;;;;;2.38;1.50;;;21.80;57.40;;;;;;4075796;28;20039;-78
2021/04/25 05:54:05;;;;;;;3.95;1.60;;;21.80;57.40;;;;;;4069997;28;20114;-77
2021/04/25 05:56:07;;;;;;;3.97;2.17;;;21.80;57.40;;;;;;4081641;28;20056;-78
2021/04/25 05:58:15;;;;;;;3.60;1.98;;;21.80;57.40;;;;;;4081817;28;20050;-80
2021/04/25 06:00:24;;;;;;;3.75;1.90;;;21.80;57.50;;;;;;4063023;28;20044;-77
2021/04/25 06:02:27;;;;;;;3.42;1.67;;;21.80;57.40;;;;;;4063210;29;20122;-75
2021/04/25 06:04:29;;;;;;;4.25;1.90;;;21.80;57.40;;;;;;4080139;28;20035;-78
2021/04/25 06:06:31;;;;;;;3.53;1.65;;;21.80;57.50;;;;;;4081390;28;20146;-79
2021/04/25 06:08:34;;;;;;;2.75;1.40;;;21.80;57.40;;;;;;4075259;28;20053;-79
2021/04/25 06:10:36;;;;;;;2.67;1.63;;;21.80;57.40;;;;;;4064733;29;20040;-80
2021/04/25 06:12:39;;;;;;;4.43;1.80;;;21.80;57.40;;;;;;4076516;28;20647;-78
2021/04/25 06:14:41;;;;;;;2.88;1.70;;;21.80;57.50;;;;;;4079360;28;20405;-77
2021/04/25 06:16:43;;;;;;;3.22;1.55;;;21.80;58.00;;;;;;4084161;28;20030;-76
2021/04/25 06:18:45;;;;;;;2.83;1.63;;;21.80;57.50;;;;;;4079354;28;20854;-74
2021/04/25 06:20:48;;;;;;;2.88;1.33;;;21.80;57.50;;;;;;4066770;29;20541;-76
2021/04/25 06:22:50;;;;;;;2.67;1.88;;;21.80;57.50;;;;;;4083428;28;20075;-79
2021/04/25 06:24:54;;;;;;;3.13;1.80;;;21.80;57.50;;;;;;4074524;28;20043;-77
2021/04/25 06:26:56;;;;;;;2.67;1.60;;;21.80;57.60;;;;;;4076212;28;20956;-75
2021/04/25 06:28:58;;;;;;;4.10;1.58;;;21.80;57.50;;;;;;4084910;28;20512;-76
2021/04/25 06:31:01;;;;;;;3.25;1.77;;;21.70;57.50;;;;;;4079389;28;21253;-76
2021/04/25 06:33:03;;;;;;;3.55;1.80;;;21.70;57.50;;;;;;4080121;28;20125;-76
2021/04/25 06:35:06;;;;;;;3.35;1.60;;;21.70;57.70;;;;;;4080913;28;20042;-79
2021/04/25 06:37:08;;;;;;;;;;;21.70;57.70;;;;;;4083200;28;20046;-77
2021/04/25 06:39:11;;;;;;;2.92;1.63;;;21.70;57.70;;;;;;4081081;28;19954;-75
2021/04/25 06:41:13;;;;;;;2.92;1.60;;;21.70;57.70;;;;;;4066714;29;20046;-73
2021/04/25 06:43:15;;;;;;;2.92;1.60;;;21.70;57.70;;;;;;4080817;28;20493;-77
2021/04/25 06:45:20;;;;;;;3.00;1.50;;;21.70;57.80;;;;;;4079446;28;20114;-76
2021/04/25 06:47:22;;;;;;;4.55;1.92;;;21.70;57.80;;;;;;4082425;28;20461;-80
2021/04/25 06:49:33;;;;;;;3.40;1.80;;;21.70;57.90;;;;;;4083836;28;20062;-87
2021/04/25 06:51:38;;;;;;;3.92;1.80;;;21.70;57.80;;;;;;4065513;29;20111;-79
2021/04/25 06:53:40;;;;;;;4.07;1.75;;;21.70;57.90;;;;;;4072631;28;20116;-76
2021/04/25 06:55:43;;;;;;;3.25;1.83;;;21.70;57.90;;;;;;4087291;28;20410;-75
2021/04/25 06:57:46;;;;;;;4.50;2.13;;;21.70;58.00;;;;;;4061198;28;20031;-76
2021/04/25 06:59:49;;;;;;;3.50;2.20;;;21.70;58.10;;;;;;4083283;28;20046;-74
2021/04/25 07:01:51;;;;;;;2.90;1.73;;;21.60;58.10;;;;;;4066674;29;21274;-79
2021/04/25 07:03:53;;;;;;;3.15;1.75;;;21.60;58.20;;;;;;4076182;28;20582;-74
2021/04/25 07:06:07;;;;;;;2.67;1.88;;;21.60;58.30;;;;;;4057878;28;20058;-81
2021/04/25 07:08:15;;;;;;;3.75;2.00;;;21.60;58.40;;;;;;4089913;28;20579;-92
2021/04/25 07:10:17;;;;;;;5.00;1.88;;;21.60;58.50;;;;;;4081591;28;20044;-82
2021/04/25 07:12:20;;;;;;;3.90;1.80;;;21.60;58.50;;;;;;4074297;28;20614;-80
2021/04/25 07:14:22;;;;;;;3.10;1.90;;;21.60;58.60;;;;;;4071590;28;20389;-84
2021/04/25 07:16:27;;;;;;;4.47;1.80;;;21.50;58.60;;;;;;4065378;29;20078;-81
2021/04/25 07:18:32;;;;;;;4.93;2.17;;;21.50;58.80;;;;;;4066698;28;20058;-83
2021/04/25 07:20:34;;;;;;;5.25;2.15;;;21.50;59.30;;;;;;4061033;28;20034;-83
2021/04/25 07:22:38;;;;;;;4.55;2.13;;;21.50;58.70;;;;;;4086236;28;20489;-80
2021/04/25 07:24:40;;;;;;;4.03;2.00;;;21.50;58.80;;;;;;4070567;28;20047;-86
2021/04/25 07:26:42;;;;;;;4.00;2.20;;;21.50;58.80;;;;;;4073817;29;20047;-82
2021/04/25 07:28:44;;;;;;;3.63;2.00;;;21.50;58.90;;;;;;4068273;29;20130;-82
2021/04/25 07:30:47;;;;;;;4.47;1.73;;;21.50;58.90;;;;;;4075185;28;20071;-80
2021/04/25 07:32:50;;;;;;;4.63;2.38;;;21.50;58.90;;;;;;4065054;28;20150;-86
2021/04/25 07:34:52;;;;;;;5.07;2.45;;;21.50;59.00;;;;;;4087602;28;20023;-80
2021/04/25 07:36:54;;;;;;;4.15;2.10;;;21.50;59.00;;;;;;4082444;28;20731;-79
2021/04/25 07:38:57;;;;;;;3.13;2.00;;;21.50;59.10;;;;;;4054635;28;20040;-81
2021/04/25 07:41:02;;;;;;;3.13;1.98;;;21.40;59.00;;;;;;4079189;28;20036;-81
2021/04/25 07:43:05;;;;;;;4.00;1.92;;;21.40;59.00;;;;;;4070154;28;20082;-79
2021/04/25 07:45:25;;;;;;;;;;;21.40;59.10;;;;;;4086876;28;20587;-83
2021/04/25 07:47:36;;;;;;;3.35;1.90;;;21.40;59.10;;;;;;4064764;28;19914;-84
2021/04/25 07:49:39;;;;;;;3.92;2.10;;;21.40;59.10;;;;;;4075480;29;20095;-85
2021/04/25 07:51:56;;;;;;;3.05;2.22;;;21.40;59.20;;;;;;4043170;28;20126;-83
2021/04/25 07:54:10;;;;;;;3.30;2.20;;;21.40;59.20;;;;;;4075160;28;20051;-84
2021/04/25 07:56:12;;;;;;;4.78;2.28;;;21.40;59.30;;;;;;4074997;29;20035;-82
2021/04/25 07:58:14;;;;;;;3.75;2.10;;;21.40;59.30;;;;;;4065544;28;20119;-80
2021/04/25 08:00:17;;;;;;;4.72;2.40;;;21.40;59.30;;;;;;4067765;29;20068;-82
2021/04/25 08:02:35;;;;;;;;;;;;;;;;;;;;;
2021/04/25 08:04:41;;;;;;;3.35;2.45;;;21.40;59.30;;;;;;4074106;28;20037;-82
2021/04/25 08:06:47;;;;;;;5.00;2.90;;;21.30;59.30;;;;;;4060566;29;20063;-83
2021/04/25 08:08:49;;;;;;;5.38;2.90;;;21.30;59.40;;;;;;4068851;28;20078;-82
2021/04/25 08:11:08;;;;;;;;;;;;;;;;;;;;;
2021/04/25 08:13:26;;;;;;;4.05;2.80;;;21.30;59.40;;;;;;4086854;28;20066;-83
2021/04/25 08:15:32;;;;;;;4.43;3.40;;;21.30;59.50;;;;;;4014651;28;20047;-83
2021/04/25 08:17:34;;;;;;;5.05;3.13;;;21.30;59.50;;;;;;4027293;29;20122;-83
2021/04/25 08:19:36;;;;;;;4.23;3.30;;;21.30;59.60;;;;;;4062937;29;20055;-79
2021/04/25 08:22:06;;;;;;;3.58;2.88;;;21.30;59.70;;;;;;4065298;29;20043;-84
2021/04/25 08:27:42;;;;;;;4.63;2.90;;;21.30;59.60;;;;;;4103135;23;20314;-82
2021/04/25 08:30:05;;;;;;;4.32;2.55;;;21.30;59.60;;;;;;4044123;28;20097;-83
2021/04/25 08:32:12;;;;;;;8.02;2.85;;;21.30;59.60;;;;;;4070294;28;20050;-85
2021/04/25 08:34:15;;;;;;;3.92;2.20;;;21.20;59.50;;;;;;4082073;28;20028;-82
2021/04/25 08:36:17;;;;;;;3.65;2.50;;;21.20;59.50;;;;;;4087485;28;20054;-80
2021/04/25 08:38:22;;;;;;;3.75;2.60;;;21.20;59.60;;;;;;4077598;28;20157;-81
2021/04/25 08:40:27;;;;;;;2.92;2.20;;;21.20;59.60;;;;;;4091231;28;20078;-82
2021/04/25 08:42:33;;;;;;;4.45;2.30;;;21.20;59.50;;;;;;4088171;28;20607;-83
2021/04/25 08:44:35;;;;;;;2.83;2.03;;;21.20;59.60;;;;;;4075930;28;20544;-83
2021/04/25 08:49:29;;;;;;;3.42;1.80;;;21.20;59.70;;;;;;3977040;29;20113;-81
2021/04/25 08:51:41;;;;;;;2.28;1.50;;;21.10;59.70;;;;;;3983138;29;20567;-81
2021/04/25 08:53:45;;;;;;;3.22;1.90;;;21.10;59.70;;;;;;4050237;28;20039;-82
2021/04/25 08:55:47;;;;;;;2.60;2.00;;;21.10;59.70;;;;;;4081273;28;20449;-80
2021/04/25 08:57:53;;;;;;;5.25;2.10;;;21.10;59.90;;;;;;4081640;28;20069;-82
2021/04/25 08:59:55;;;;;;;4.68;2.08;;;21.10;59.70;;;;;;4078862;28;20505;-81
2021/04/25 09:01:57;;;;;;;4.80;2.10;;;21.10;59.80;;;;;;4084048;28;20731;-82
2021/04/25 09:04:09;;;;;;;5.00;2.47;;;21.10;59.90;;;;;;4082592;28;20961;-82
2021/04/25 09:06:14;;;;;;;7.05;2.50;;;21.10;60.50;;;;;;4079802;28;20054;-80
2021/04/25 09:08:20;;;;;;;8.80;2.50;;;21.10;61.10;;;;;;4079808;28;20046;-80
2021/04/25 09:10:36;;;;;;;8.48;2.67;;;21.10;61.30;;;;;;4080392;28;20146;-81
2021/04/25 09:13:00;;;;;;;3.90;2.60;;;21.10;61.50;;;;;;4084123;28;20102;-81
2021/04/25 09:15:03;;;;;;;;;;;21.10;61.60;;;;;;4080797;28;20043;-80
2021/04/25 09:17:09;;;;;;;7.95;2.63;;;21.10;61.60;;;;;;4085584;28;19910;-80
2021/04/25 09:19:13;;;;;;;6.70;2.25;;;21.10;61.80;;;;;;4039118;28;20108;-81
2021/04/25 09:21:16;;;;;;;6.70;2.70;;;21.10;61.90;;;;;;4080031;28;20050;-80
2021/04/25 09:23:25;;;;;;;6.40;2.78;;;21.20;62.10;;;;;;4077174;28;20059;-78
2021/04/25 09:25:27;;;;;;;11.27;2.90;;;21.20;62.20;;;;;;4080785;28;20211;-76
2021/04/25 09:27:34;;;;;;;6.10;2.53;;;21.20;62.20;;;;;;4063568;28;20043;-81
2021/04/25 09:29:58;;;;;;;11.82;2.72;;;21.20;62.20;;;;;;4077008;28;20055;-81
2021/04/25 09:32:00;;;;;;;7.30;2.55;;;21.20;62.20;;;;;;4082680;28;20050;-78
2021/04/25 09:34:09;;;;;;;5.03;2.53;;;21.20;62.10;;;;;;4065142;28;20145;-80
2021/04/25 09:36:17;;;;;;;5.97;2.38;;;21.20;62.10;;;;;;4081993;28;20149;-82
2021/04/25 09:38:19;;;;;;;6.95;2.55;;;21.30;62.10;;;;;;4081374;28;20795;-81
2021/04/25 09:40:28;;;;;;;9.50;2.10;;;21.30;62.20;;;;;;4082403;28;20034;-80
2021/04/25 09:42:33;;;;;;;3.95;2.20;;;21.30;62.10;;;;;;4064746;28;20056;-77
2021/04/25 09:44:45;;;;;;;3.90;1.83;;;21.30;62.00;;;;;;4050910;28;20042;-81
2021/04/25 09:46:54;;;;;;;5.05;1.90;;;21.30;62.10;;;;;;4081186;28;20099;-80
2021/04/25 09:49:04;;;;;;;5.18;1.80;;;21.30;62.10;;;;;;4084673;28;20571;-81
2021/04/25 09:51:21;;;;;;;6.60;1.95;;;21.30;62.10;;;;;;4054397;28;20260;-80
2021/04/25 09:53:34;;;;;;;8.20;2.50;;;21.30;62.10;;;;;;4077077;28;20054;-79
2021/04/25 09:56:02;;;;;;;6.53;2.08;;;21.30;62.10;;;;;;4098455;28;20480;-82
2021/04/25 09:58:11;;;;;;;16.27;2.63;;;21.30;62.10;;;;;;4037708;28;20050;-82
2021/04/25 10:00:18;;;;;;;5.97;2.00;;;21.30;62.10;;;;;;4079895;28;20088;-85
2021/04/25 10:02:45;;;;;;;6.60;2.83;;;21.30;61.90;;;;;;4072862;28;20079;-85
2021/04/25 10:04:52;;;;;;;6.63;2.15;;;21.30;61.90;;;;;;4093231;28;20064;-87
2021/04/25 10:07:01;;;;;;;6.63;2.55;;;21.30;62.00;;;;;;4100289;28;20801;-82
2021/04/25 10:12:14;;;;;;;5.47;2.38;;;21.30;61.90;;;;;;4093600;23;20422;-60
2021/04/25 10:14:17;;;;;;;6.60;2.40;;;21.30;62.00;;;;;;4108230;28;20030;-61
2021/04/25 10:16:21;;;;;;;6.78;2.55;;;21.30;62.00;;;;;;4104167;28;20073;-60
2021/04/25 10:18:24;;;;;;;5.53;2.20;;;21.30;61.90;;;;;;4108858;28;20460;-60
2021/04/25 10:20:26;;;;;;;4.50;2.58;;;21.30;62.00;;;;;;4102794;28;20038;-59
2021/04/25 10:22:29;;;;;;;8.55;2.40;;;21.30;61.90;;;;;;4105247;28;20045;-58
2021/04/25 10:24:31;;;;;;;5.90;2.42;;;21.30;62.00;;;;;;4116298;28;20030;-58
2021/04/25 10:27:02;;;;;;;7.22;2.35;;;21.30;62.20;;;;;;4121837;28;20509;-58
2021/04/25 10:29:09;;;;;;;8.02;2.90;;;21.20;62.00;;;;;;4103188;28;20201;-52
2021/04/25 10:31:17;;;;;;;6.00;2.60;;;21.30;62.10;;;;;;4107881;28;20424;-53
2021/04/25 10:33:19;;;;;;;5.20;2.30;;;21.20;62.10;;;;;;4104100;28;21073;-60
2021/04/25 10:35:23;;;;;;;9.68;2.53;;;21.20;62.10;;;;;;4106944;28;20030;-58
2021/04/25 10:37:41;;;;;;;5.03;2.33;;;21.20;62.30;;;;;;4103292;28;20039;-58
2021/04/25 10:39:49;;;;;;;3.72;2.10;;;21.20;62.20;;;;;;4107503;28;20266;-59
2021/04/25 10:42:11;;;;;;;5.50;2.92;;;21.20;62.20;;;;;;4102826;28;20181;-60
2021/04/25 10:44:13;;;;;;;4.63;2.58;;;21.20;62.20;;;;;;4110515;28;20322;-60
2021/04/25 10:46:15;;;;;;;3.33;2.10;;;21.20;62.20;;;;;;4097906;28;20045;-58
2021/04/25 10:48:32;;;;;;;5.18;2.58;;;21.20;62.30;;;;;;4107990;28;20046;-57
2021/04/25 10:50:42;;;;;;;4.82;2.45;;;21.20;62.80;;;;;;4096090;28;20053;-53
2021/04/25 10:52:47;;;;;;;5.53;2.30;;;21.20;62.20;;;;;;4109476;28;20104;-51
2021/04/25 10:55:14;;;;;;;7.20;2.70;;;21.20;62.20;;;;;;4108740;28;20046;-54
2021/04/25 10:57:16;;;;;;;5.30;2.60;;;21.20;62.20;;;;;;4115001;28;20541;-57
2021/04/25 10:59:24;;;;;;;6.28;2.80;;;21.20;62.30;;;;;;4124709;28;20025;-55
2021/04/25 11:01:47;;;;;;;6.03;2.60;;;21.20;62.40;;;;;;4111693;28;20030;-51
2021/04/25 11:03:49;;;;;;;4.35;2.65;;;21.20;62.30;;;;;;4108219;28;20077;-52
2021/04/25 11:05:52;;;;;;;9.07;2.78;;;21.20;62.50;;;;;;4106693;28;20039;-51
2021/04/25 11:07:54;;;;;;;3.53;2.50;;;21.20;62.40;;;;;;4094936;28;20031;-59